Time,TemperatureF,DewpointF,PressureIn,WindDirection,WindDirectionDegrees,WindSpeedMPH,WindSpeedGustMPH,Humidity,HourlyPrecipIn,Conditions,Clouds,dailyrainin,SoftwareType,DateUTC
2013-12-24 00:02:00,36.0,33.8,30.48,NW,324,0.0,5.0,92,0.00,,,0.06,meteohub,2013-12-24 08:02:00,
2013-12-24 00:07:00,35.8,33.6,30.48,NW,324,0.0,4.0,92,0.00,,,0.00,meteohub,2013-12-24 08:07:00,
2013-12-24 00:12:00,35.6,33.8,30.48,NW,324,0.0,4.0,93,0.00,,,0.00,meteohub,2013-12-24 08:12:00,
2013-12-24 00:17:00,35.4,33.6,30.48,NW,324,1.0,2.0,93,0.00,,,0.00,meteohub,2013-12-24 08:17:00,
2013-12-24 00:22:00,35.4,33.6,30.49,NW,320,0.0,2.0,93,0.00,,,0.00,meteohub,2013-12-24 08:22:00,
2013-12-24 00:27:00,35.2,33.4,30.48,NW,320,0.0,2.0,93,0.00,,,0.00,meteohub,2013-12-24 08:27:00,
2013-12-24 00:32:00,35.2,33.4,30.48,NW,320,2.0,2.0,93,0.00,,,0.00,meteohub,2013-12-24 08:32:00,
2013-12-24 00:37:00,35.4,33.6,30.49,NW,320,0.0,2.0,93,0.00,,,0.00,meteohub,2013-12-24 08:37:00,
2013-12-24 00:43:00,35.4,33.6,30.49,NW,320,0.0,4.0,93,0.00,,,0.00,meteohub,2013-12-24 08:43:00,
2013-12-24 00:48:00,35.4,33.6,30.49,NW,320,0.0,4.0,93,0.00,,,0.00,meteohub,2013-12-24 08:48:00,
2013-12-24 00:53:00,35.4,33.6,30.49,NW,320,0.0,4.0,93,0.00,,,0.00,meteohub,2013-12-24 08:53:00,
2013-12-24 00:58:00,35.2,33.4,30.49,NW,320,0.0,2.0,93,0.00,,,0.00,meteohub,2013-12-24 08:58:00,
2013-12-24 01:03:00,35.2,33.4,30.50,NW,319,0.0,4.0,93,0.00,,,0.00,meteohub,2013-12-24 09:03:00,
2013-12-24 01:08:00,35.2,33.4,30.50,NW,318,0.0,5.0,93,0.00,,,0.00,meteohub,2013-12-24 09:08:00,
2013-12-24 01:13:00,35.4,33.8,30.50,NW,318,0.0,5.0,94,0.00,,,0.00,meteohub,2013-12-24 09:13:00,
2013-12-24 01:18:00,35.4,33.8,30.50,NW,318,0.0,4.0,94,0.00,,,0.00,meteohub,2013-12-24 09:18:00,
2013-12-24 01:23:00,35.6,33.8,30.50,NW,315,2.0,4.0,93,0.00,,,0.00,meteohub,2013-12-24 09:23:00,
2013-12-24 01:28:00,35.6,33.8,30.50,NW,315,1.0,4.0,93,0.00,,,0.00,meteohub,2013-12-24 09:28:00,
2013-12-24 01:33:00,35.6,33.8,30.50,NW,315,0.0,5.0,93,0.00,,,0.00,meteohub,2013-12-24 09:33:00,
2013-12-24 01:38:00,35.8,34.2,30.50,NW,315,1.0,5.0,94,0.00,,,0.00,meteohub,2013-12-24 09:38:00,
2013-12-24 01:43:00,35.8,34.0,30.50,WNW,290,2.0,5.0,93,0.00,,,0.00,meteohub,2013-12-24 09:43:00,
2013-12-24 01:48:00,35.8,34.0,30.50,NW,308,1.0,5.0,93,0.00,,,0.00,meteohub,2013-12-24 09:48:00,
2013-12-24 01:54:00,36.0,34.2,30.50,NW,319,1.0,5.0,93,0.00,,,0.00,meteohub,2013-12-24 09:54:00,
2013-12-24 01:59:00,36.0,34.2,30.51,NW,319,0.0,6.0,93,0.00,,,0.00,meteohub,2013-12-24 09:59:00,
2013-12-24 02:04:00,36.0,34.3,30.51,NW,319,2.0,6.0,94,0.00,,,0.00,meteohub,2013-12-24 10:04:00,
2013-12-24 02:09:00,36.1,34.5,30.51,NW,319,0.0,4.0,94,0.00,,,0.00,meteohub,2013-12-24 10:09:00,
2013-12-24 02:14:00,36.3,34.7,30.52,West,279,1.0,4.0,94,0.00,,,0.00,meteohub,2013-12-24 10:14:00,
2013-12-24 02:19:00,36.7,35.1,30.51,WNW,300,2.0,5.0,94,0.00,,,0.00,meteohub,2013-12-24 10:19:00,
2013-12-24 02:25:00,37.0,35.4,30.51,NNW,332,2.0,7.0,94,0.00,,,0.00,meteohub,2013-12-24 10:25:00,
2013-12-24 02:30:00,36.9,35.1,30.52,NNW,332,1.0,7.0,93,0.00,,,0.00,meteohub,2013-12-24 10:30:00,
2013-12-24 02:35:00,36.7,34.9,30.52,NNW,331,0.0,7.0,93,0.00,,,0.00,meteohub,2013-12-24 10:35:00,
2013-12-24 02:40:00,36.7,34.9,30.52,NNW,331,2.0,6.0,93,0.00,,,0.00,meteohub,2013-12-24 10:40:00,
2013-12-24 02:45:00,36.7,34.9,30.52,NW,304,1.0,4.0,93,0.00,,,0.00,meteohub,2013-12-24 10:45:00,
2013-12-24 02:50:00,36.7,35.1,30.52,NW,304,1.0,6.0,94,0.00,,,0.00,meteohub,2013-12-24 10:50:00,
2013-12-24 02:55:00,36.7,34.9,30.53,NW,307,0.0,6.0,93,0.00,,,0.00,meteohub,2013-12-24 10:55:00,
2013-12-24 03:00:00,36.7,35.1,30.53,NW,307,4.0,4.0,94,0.00,,,0.00,meteohub,2013-12-24 11:00:00,
2013-12-24 03:05:00,36.9,35.2,30.53,NW,323,1.0,5.0,94,0.00,,,0.00,meteohub,2013-12-24 11:05:00,
2013-12-24 03:10:00,36.9,35.1,30.53,NW,323,1.0,5.0,93,0.00,,,0.00,meteohub,2013-12-24 11:10:00,
2013-12-24 03:15:00,36.9,35.1,30.53,NNW,327,0.0,5.0,93,0.00,,,0.00,meteohub,2013-12-24 11:15:00,
2013-12-24 03:20:00,36.9,35.1,30.54,NNW,336,1.0,5.0,93,0.00,,,0.00,meteohub,2013-12-24 11:20:00,
2013-12-24 03:26:00,36.9,35.1,30.54,NNW,336,2.0,5.0,93,0.00,,,0.00,meteohub,2013-12-24 11:26:00,
2013-12-24 03:31:00,36.7,34.9,30.54,NNW,336,2.0,5.0,93,0.00,,,0.00,meteohub,2013-12-24 11:31:00,
2013-12-24 03:36:00,36.5,34.7,30.54,NNW,336,0.0,4.0,93,0.00,,,0.00,meteohub,2013-12-24 11:36:00,
2013-12-24 03:41:00,36.3,34.5,30.54,NNW,336,0.0,4.0,93,0.00,,,0.00,meteohub,2013-12-24 11:41:00,
2013-12-24 03:46:00,36.3,34.5,30.54,NNW,336,0.0,4.0,93,0.00,,,0.00,meteohub,2013-12-24 11:46:00,
2013-12-24 03:51:00,36.3,34.5,30.54,NNW,336,2.0,2.0,93,0.00,,,0.00,meteohub,2013-12-24 11:51:00,
2013-12-24 03:56:00,36.3,34.7,30.54,NNW,336,1.0,4.0,94,0.00,,,0.00,meteohub,2013-12-24 11:56:00,
2013-12-24 04:01:00,36.3,34.5,30.54,NNW,336,0.0,4.0,93,0.00,,,0.00,meteohub,2013-12-24 12:01:00,
2013-12-24 04:06:00,36.3,34.5,30.54,NNW,336,0.0,4.0,93,0.00,,,0.00,meteohub,2013-12-24 12:06:00,
2013-12-24 04:11:00,36.3,34.5,30.54,NNW,336,0.0,2.0,93,0.00,,,0.00,meteohub,2013-12-24 12:11:00,
2013-12-24 04:16:00,36.1,34.3,30.54,NNW,336,0.0,2.0,93,0.00,,,0.00,meteohub,2013-12-24 12:16:00,
2013-12-24 04:21:00,36.1,34.3,30.54,NNW,336,0.0,1.0,93,0.00,,,0.00,meteohub,2013-12-24 12:21:00,
2013-12-24 04:26:00,36.1,34.3,30.54,NNW,336,0.0,1.0,93,0.00,,,0.00,meteohub,2013-12-24 12:26:00,
2013-12-24 04:31:00,36.0,34.2,30.54,NNW,336,2.0,2.0,93,0.00,,,0.00,meteohub,2013-12-24 12:31:00,
2013-12-24 04:37:00,36.0,34.2,30.54,NNW,336,1.0,4.0,93,0.00,,,0.00,meteohub,2013-12-24 12:37:00,
2013-12-24 04:42:00,36.0,34.3,30.54,NNW,336,0.0,4.0,94,0.00,,,0.00,meteohub,2013-12-24 12:42:00,
2013-12-24 04:47:00,36.0,34.2,30.54,NNW,336,0.0,4.0,93,0.00,,,0.00,meteohub,2013-12-24 12:47:00,
2013-12-24 04:52:00,36.0,34.3,30.54,NNW,336,0.0,4.0,94,0.00,,,0.00,meteohub,2013-12-24 12:52:00,
2013-12-24 04:57:00,36.0,34.3,30.54,NNW,336,0.0,4.0,94,0.00,,,0.00,meteohub,2013-12-24 12:57:00,
2013-12-24 05:02:00,36.0,34.3,30.55,NNW,336,2.0,4.0,94,0.00,,,0.00,meteohub,2013-12-24 13:02:00,
2013-12-24 05:07:00,36.0,34.2,30.55,NNW,336,0.0,2.0,93,0.00,,,0.00,meteohub,2013-12-24 13:07:00,
2013-12-24 05:12:00,36.0,34.2,30.55,NNW,336,0.0,2.0,93,0.00,,,0.00,meteohub,2013-12-24 13:12:00,
2013-12-24 05:17:00,36.0,34.3,30.55,NNW,336,0.0,2.0,94,0.00,,,0.00,meteohub,2013-12-24 13:17:00,
2013-12-24 05:22:00,36.1,34.5,30.55,NNW,336,0.0,2.0,94,0.00,,,0.00,meteohub,2013-12-24 13:22:00,
2013-12-24 05:27:00,36.1,34.5,30.55,NNW,336,0.0,2.0,94,0.00,,,0.00,meteohub,2013-12-24 13:27:00,
2013-12-24 05:32:00,36.1,34.5,30.55,NNW,336,1.0,2.0,94,0.00,,,0.00,meteohub,2013-12-24 13:32:00,
2013-12-24 05:37:00,36.0,34.3,30.55,NNW,336,2.0,2.0,94,0.00,,,0.00,meteohub,2013-12-24 13:37:00,
2013-12-24 05:42:00,36.0,34.2,30.55,NNW,336,0.0,2.0,93,0.00,,,0.00,meteohub,2013-12-24 13:42:00,
2013-12-24 05:47:00,35.8,34.0,30.55,NNW,336,0.0,2.0,93,0.00,,,0.00,meteohub,2013-12-24 13:47:00,
2013-12-24 05:52:00,35.8,34.0,30.55,NNW,336,0.0,2.0,93,0.00,,,0.00,meteohub,2013-12-24 13:52:00,
2013-12-24 05:57:00,35.8,34.0,30.56,NNW,336,1.0,2.0,93,0.00,,,0.00,meteohub,2013-12-24 13:57:00,
2013-12-24 06:02:00,35.6,33.8,30.55,NNW,336,0.0,2.0,93,0.00,,,0.00,meteohub,2013-12-24 14:02:00,
2013-12-24 06:07:00,35.4,33.8,30.56,NNW,336,0.0,2.0,94,0.00,,,0.00,meteohub,2013-12-24 14:07:00,
2013-12-24 06:12:00,35.6,34.0,30.56,NNW,336,0.0,2.0,94,0.00,,,0.00,meteohub,2013-12-24 14:12:00,
2013-12-24 06:17:00,35.6,34.0,30.56,NNW,336,0.0,0.0,94,0.00,,,0.00,meteohub,2013-12-24 14:17:00,
2013-12-24 06:22:00,35.6,34.0,30.56,NW,323,0.0,1.0,94,0.00,,,0.00,meteohub,2013-12-24 14:22:00,
2013-12-24 06:27:00,35.6,34.0,30.56,NW,323,0.0,1.0,94,0.00,,,0.00,meteohub,2013-12-24 14:27:00,
2013-12-24 06:32:00,35.6,34.0,30.56,NW,323,0.0,4.0,94,0.00,,,0.00,meteohub,2013-12-24 14:32:00,
2013-12-24 06:37:00,35.6,34.0,30.57,NW,323,0.0,4.0,94,0.00,,,0.00,meteohub,2013-12-24 14:37:00,
2013-12-24 06:42:00,35.8,34.2,30.57,NW,323,0.0,4.0,94,0.00,,,0.00,meteohub,2013-12-24 14:42:00,
2013-12-24 06:47:00,35.6,34.0,30.57,NW,323,0.0,1.0,94,0.00,,,0.00,meteohub,2013-12-24 14:47:00,
2013-12-24 06:52:00,35.8,34.2,30.57,NW,323,0.0,4.0,94,0.00,,,0.00,meteohub,2013-12-24 14:52:00,
2013-12-24 06:57:00,35.8,34.2,30.57,NW,323,0.0,4.0,94,0.00,,,0.00,meteohub,2013-12-24 14:57:00,
2013-12-24 07:02:00,36.0,34.3,30.57,NW,323,1.0,2.0,94,0.00,,,0.00,meteohub,2013-12-24 15:02:00,
2013-12-24 07:07:00,36.0,34.3,30.57,NW,323,0.0,4.0,94,0.00,,,0.00,meteohub,2013-12-24 15:07:00,
2013-12-24 07:12:00,36.0,34.3,30.57,NW,323,0.0,4.0,94,0.00,,,0.00,meteohub,2013-12-24 15:12:00,
2013-12-24 07:17:00,36.0,34.3,30.57,NW,323,4.0,4.0,94,0.00,,,0.00,meteohub,2013-12-24 15:17:00,
2013-12-24 07:22:00,35.8,34.0,30.57,NW,321,0.0,5.0,93,0.00,,,0.00,meteohub,2013-12-24 15:22:00,
2013-12-24 07:27:00,35.6,34.0,30.57,NW,321,1.0,5.0,94,0.00,,,0.00,meteohub,2013-12-24 15:27:00,
2013-12-24 07:32:00,35.4,33.8,30.57,NW,321,2.0,5.0,94,0.00,,,0.00,meteohub,2013-12-24 15:32:00,
2013-12-24 07:37:00,35.4,33.8,30.57,NW,321,0.0,4.0,94,0.00,,,0.00,meteohub,2013-12-24 15:37:00,
2013-12-24 07:42:00,35.4,33.8,30.57,NW,321,0.0,4.0,94,0.00,,,0.00,meteohub,2013-12-24 15:42:00,
2013-12-24 07:47:00,35.2,33.6,30.57,NW,321,1.0,2.0,94,0.00,,,0.00,meteohub,2013-12-24 15:47:00,
2013-12-24 07:52:00,35.2,33.6,30.57,NW,321,1.0,2.0,94,0.00,,,0.00,meteohub,2013-12-24 15:52:00,
2013-12-24 07:57:00,35.4,33.8,30.57,NW,321,0.0,2.0,94,0.00,,,0.00,meteohub,2013-12-24 15:57:00,
2013-12-24 08:02:00,35.4,33.8,30.58,NW,321,2.0,2.0,94,0.00,,,0.00,meteohub,2013-12-24 16:02:00,
2013-12-24 08:08:00,35.6,34.0,30.58,NW,321,0.0,2.0,94,0.00,,,0.00,meteohub,2013-12-24 16:08:00,
2013-12-24 08:13:00,35.6,34.0,30.58,NW,321,0.0,4.0,94,0.00,,,0.00,meteohub,2013-12-24 16:13:00,
2013-12-24 08:18:00,35.8,34.2,30.58,NW,321,0.0,4.0,94,0.00,,,0.00,meteohub,2013-12-24 16:18:00,
2013-12-24 08:23:00,35.8,34.2,30.58,NW,321,2.0,4.0,94,0.00,,,0.00,meteohub,2013-12-24 16:23:00,
2013-12-24 08:28:00,35.8,34.2,30.58,NW,321,0.0,4.0,94,0.00,,,0.00,meteohub,2013-12-24 16:28:00,
2013-12-24 08:33:00,36.0,34.3,30.59,NW,321,0.0,4.0,94,0.00,,,0.00,meteohub,2013-12-24 16:33:00,
2013-12-24 08:38:00,36.1,34.5,30.58,NW,321,0.0,4.0,94,0.00,,,0.00,meteohub,2013-12-24 16:38:00,
2013-12-24 08:43:00,36.0,34.3,30.58,West,279,1.0,4.0,94,0.00,,,0.00,meteohub,2013-12-24 16:43:00,
2013-12-24 08:48:00,36.0,34.3,30.58,West,279,0.0,5.0,94,0.00,,,0.00,meteohub,2013-12-24 16:48:00,
2013-12-24 08:53:00,36.0,34.3,30.59,NW,305,0.0,5.0,94,0.00,,,0.00,meteohub,2013-12-24 16:53:00,
2013-12-24 08:58:00,36.1,34.5,30.58,NW,311,1.0,5.0,94,0.00,,,0.00,meteohub,2013-12-24 16:58:00,
2013-12-24 09:04:00,36.1,34.5,30.59,NW,311,0.0,5.0,94,0.00,,,0.00,meteohub,2013-12-24 17:04:00,
2013-12-24 09:09:00,36.3,34.7,30.59,NW,311,0.0,5.0,94,0.00,,,0.00,meteohub,2013-12-24 17:09:00,
2013-12-24 09:14:00,36.3,34.7,30.59,NW,311,0.0,5.0,94,0.00,,,0.00,meteohub,2013-12-24 17:14:00,
2013-12-24 09:19:00,36.7,35.1,30.59,NW,311,0.0,2.0,94,0.00,,,0.00,meteohub,2013-12-24 17:19:00,
2013-12-24 09:24:00,36.9,35.2,30.59,NW,311,1.0,2.0,94,0.00,,,0.00,meteohub,2013-12-24 17:24:00,
2013-12-24 09:29:00,36.9,35.2,30.60,NW,312,1.0,2.0,94,0.00,,,0.00,meteohub,2013-12-24 17:29:00,
2013-12-24 09:34:00,36.9,35.2,30.60,NW,315,1.0,5.0,94,0.00,,,0.00,meteohub,2013-12-24 17:34:00,
2013-12-24 09:39:00,36.9,35.2,30.60,NW,315,1.0,5.0,94,0.00,,,0.00,meteohub,2013-12-24 17:39:00,
2013-12-24 09:44:00,36.9,35.2,30.60,NW,315,0.0,5.0,94,0.00,,,0.00,meteohub,2013-12-24 17:44:00,
2013-12-24 09:49:00,36.9,35.2,30.60,NW,315,4.0,5.0,94,0.00,,,0.00,meteohub,2013-12-24 17:49:00,
2013-12-24 09:54:00,36.9,35.2,30.60,NW,315,0.0,2.0,94,0.00,,,0.00,meteohub,2013-12-24 17:54:00,
2013-12-24 09:59:00,37.0,35.4,30.60,NW,315,0.0,5.0,94,0.00,,,0.00,meteohub,2013-12-24 17:59:00,
2013-12-24 10:04:00,37.0,35.4,30.60,NW,319,2.0,5.0,94,0.00,,,0.00,meteohub,2013-12-24 18:04:00,
2013-12-24 10:10:00,37.4,35.8,30.60,NW,319,0.0,2.0,94,0.00,,,0.00,meteohub,2013-12-24 18:10:00,
2013-12-24 10:15:00,37.6,36.0,30.60,NW,319,0.0,4.0,94,0.00,,,0.00,meteohub,2013-12-24 18:15:00,
2013-12-24 10:20:00,37.8,36.1,30.60,NW,319,1.0,4.0,94,0.00,,,0.00,meteohub,2013-12-24 18:20:00,
2013-12-24 10:25:00,37.9,36.3,30.61,NW,319,2.0,4.0,94,0.00,,,0.00,meteohub,2013-12-24 18:25:00,
2013-12-24 10:30:00,37.9,36.3,30.61,NW,322,5.0,5.0,94,0.00,,,0.00,meteohub,2013-12-24 18:30:00,
2013-12-24 10:35:00,38.1,36.5,30.61,NW,323,2.0,6.0,94,0.00,,,0.00,meteohub,2013-12-24 18:35:00,
2013-12-24 10:40:00,38.1,36.5,30.61,NW,323,2.0,6.0,94,0.00,,,0.00,meteohub,2013-12-24 18:40:00,
2013-12-24 10:45:00,38.5,36.9,30.61,NW,323,1.0,5.0,94,0.00,,,0.00,meteohub,2013-12-24 18:45:00,
2013-12-24 10:50:00,38.5,36.9,30.61,NNE,19,3.0,5.0,94,0.00,,,0.00,meteohub,2013-12-24 18:50:00,
2013-12-24 10:55:00,38.7,37.0,30.61,NNE,19,2.0,5.0,94,0.00,,,0.00,meteohub,2013-12-24 18:55:00,
2013-12-24 11:00:00,38.8,37.2,30.61,NNE,14,3.0,6.0,94,0.00,,,0.00,meteohub,2013-12-24 19:00:00,
2013-12-24 11:05:00,39.0,37.4,30.61,North,350,6.0,6.0,94,0.00,,,0.00,meteohub,2013-12-24 19:05:00,
2013-12-24 11:10:00,39.0,37.2,30.61,NNW,338,4.0,8.0,93,0.00,,,0.00,meteohub,2013-12-24 19:10:00,
2013-12-24 11:16:00,39.4,37.6,30.61,NW,321,2.0,8.0,93,0.00,,,0.00,meteohub,2013-12-24 19:16:00,
2013-12-24 11:21:00,39.6,37.8,30.61,NNW,328,5.0,8.0,93,0.00,,,0.00,meteohub,2013-12-24 19:21:00,
2013-12-24 11:26:00,39.6,37.8,30.61,NNW,331,6.0,7.0,93,0.00,,,0.00,meteohub,2013-12-24 19:26:00,
2013-12-24 11:31:00,39.7,37.9,30.60,NW,325,7.0,7.0,93,0.00,,,0.00,meteohub,2013-12-24 19:31:00,
2013-12-24 11:36:00,39.9,37.8,30.60,NNW,331,6.0,9.0,92,0.00,,,0.00,meteohub,2013-12-24 19:36:00,
2013-12-24 11:41:00,39.9,37.8,30.60,NNW,338,4.0,9.0,92,0.00,,,0.00,meteohub,2013-12-24 19:41:00,
2013-12-24 11:46:00,40.1,37.9,30.60,NNW,347,6.0,9.0,92,0.00,,,0.00,meteohub,2013-12-24 19:46:00,
2013-12-24 11:51:00,40.3,38.1,30.60,NW,322,5.0,9.0,92,0.00,,,0.00,meteohub,2013-12-24 19:51:00,
2013-12-24 11:56:00,40.5,38.1,30.60,NW,324,2.0,7.0,91,0.00,,,0.00,meteohub,2013-12-24 19:56:00,
2013-12-24 12:01:00,40.6,38.3,30.60,NW,324,4.0,7.0,91,0.00,,,0.00,meteohub,2013-12-24 20:01:00,
2013-12-24 12:06:00,40.8,38.5,30.59,NW,324,2.0,6.0,91,0.00,,,0.00,meteohub,2013-12-24 20:06:00,
2013-12-24 12:11:00,41.2,38.8,30.59,NW,324,4.0,6.0,91,0.00,,,0.00,meteohub,2013-12-24 20:11:00,
2013-12-24 12:16:00,41.4,39.0,30.59,NW,324,4.0,5.0,91,0.00,,,0.00,meteohub,2013-12-24 20:16:00,
2013-12-24 12:22:00,41.5,39.2,30.59,NNW,333,4.0,5.0,91,0.00,,,0.00,meteohub,2013-12-24 20:22:00,
2013-12-24 12:27:00,41.5,38.8,30.59,NNW,338,5.0,7.0,90,0.00,,,0.00,meteohub,2013-12-24 20:27:00,
2013-12-24 12:32:00,41.7,39.0,30.59,NNW,333,4.0,7.0,90,0.00,,,0.00,meteohub,2013-12-24 20:32:00,
2013-12-24 12:37:00,41.9,38.8,30.60,NNW,333,4.0,7.0,89,0.00,,,0.00,meteohub,2013-12-24 20:37:00,
2013-12-24 12:42:00,42.1,38.8,30.59,NNW,342,2.0,7.0,88,0.00,,,0.00,meteohub,2013-12-24 20:42:00,
2013-12-24 12:47:00,42.3,39.0,30.60,NNW,342,4.0,6.0,88,0.00,,,0.00,meteohub,2013-12-24 20:47:00,
2013-12-24 12:52:00,42.4,39.2,30.60,North,355,2.0,6.0,88,0.00,,,0.00,meteohub,2013-12-24 20:52:00,
2013-12-24 12:57:00,42.6,39.4,30.60,North,355,1.0,6.0,88,0.00,,,0.00,meteohub,2013-12-24 20:57:00,
2013-12-24 13:02:00,42.6,39.4,30.60,North,355,2.0,6.0,88,0.00,,,0.00,meteohub,2013-12-24 21:02:00,
2013-12-24 13:07:00,42.8,39.2,30.60,North,5,1.0,5.0,87,0.00,,,0.00,meteohub,2013-12-24 21:07:00,
2013-12-24 13:12:00,42.8,39.6,30.60,North,5,2.0,5.0,88,0.00,,,0.00,meteohub,2013-12-24 21:12:00,
2013-12-24 13:17:00,42.8,39.2,30.60,North,5,1.0,5.0,87,0.00,,,0.00,meteohub,2013-12-24 21:17:00,
2013-12-24 13:22:00,42.8,39.6,30.59,North,5,1.0,5.0,88,0.00,,,0.00,meteohub,2013-12-24 21:22:00,
2013-12-24 13:27:00,42.8,39.6,30.60,North,5,2.0,4.0,88,0.00,,,0.00,meteohub,2013-12-24 21:27:00,
2013-12-24 13:32:00,42.8,39.6,30.59,North,5,0.0,4.0,88,0.00,,,0.00,meteohub,2013-12-24 21:32:00,
2013-12-24 13:37:00,42.8,39.6,30.59,North,5,2.0,4.0,88,0.00,,,0.00,meteohub,2013-12-24 21:37:00,
2013-12-24 13:42:00,42.8,39.6,30.59,North,5,2.0,4.0,88,0.00,,,0.00,meteohub,2013-12-24 21:42:00,
2013-12-24 13:47:00,42.8,39.6,30.59,North,5,2.0,4.0,88,0.00,,,0.00,meteohub,2013-12-24 21:47:00,
2013-12-24 13:52:00,43.0,39.7,30.59,North,5,2.0,4.0,88,0.00,,,0.00,meteohub,2013-12-24 21:52:00,
2013-12-24 13:57:00,43.0,39.7,30.59,North,5,0.0,4.0,88,0.00,,,0.00,meteohub,2013-12-24 21:57:00,
2013-12-24 14:02:00,43.2,39.9,30.59,North,5,0.0,3.0,88,0.00,,,0.00,meteohub,2013-12-24 22:02:00,
2013-12-24 14:07:00,43.2,39.9,30.59,North,5,0.0,3.0,88,0.00,,,0.00,meteohub,2013-12-24 22:07:00,
2013-12-24 14:12:00,43.3,40.1,30.59,North,5,0.0,2.0,88,0.00,,,0.00,meteohub,2013-12-24 22:12:00,
2013-12-24 14:17:00,43.3,40.1,30.59,North,5,0.0,2.0,88,0.00,,,0.00,meteohub,2013-12-24 22:17:00,
2013-12-24 14:22:00,43.3,39.7,30.59,North,5,2.0,3.0,87,0.00,,,0.00,meteohub,2013-12-24 22:22:00,
2013-12-24 14:27:00,43.3,39.7,30.59,North,5,3.0,3.0,87,0.00,,,0.00,meteohub,2013-12-24 22:27:00,
2013-12-24 14:32:00,43.2,39.6,30.58,North,0,2.0,4.0,87,0.00,,,0.00,meteohub,2013-12-24 22:32:00,
2013-12-24 14:37:00,43.2,39.6,30.59,North,0,1.0,4.0,87,0.00,,,0.00,meteohub,2013-12-24 22:37:00,
2013-12-24 14:42:00,43.0,39.4,30.59,North,0,3.0,4.0,87,0.00,,,0.00,meteohub,2013-12-24 22:42:00,
2013-12-24 14:47:00,43.0,39.4,30.59,North,0,1.0,4.0,87,0.00,,,0.00,meteohub,2013-12-24 22:47:00,
2013-12-24 14:52:00,43.0,39.0,30.59,North,0,2.0,4.0,86,0.00,,,0.00,meteohub,2013-12-24 22:52:00,
2013-12-24 14:57:00,43.0,39.0,30.59,North,0,2.0,4.0,86,0.00,,,0.00,meteohub,2013-12-24 22:57:00,
2013-12-24 15:02:00,43.0,39.0,30.59,North,0,3.0,3.0,86,0.00,,,0.00,meteohub,2013-12-24 23:02:00,
2013-12-24 15:07:00,43.0,39.0,30.59,North,0,2.0,3.0,86,0.00,,,0.00,meteohub,2013-12-24 23:07:00,
2013-12-24 15:12:00,43.0,39.0,30.59,North,0,3.0,3.0,86,0.00,,,0.00,meteohub,2013-12-24 23:12:00,
2013-12-24 15:17:00,43.2,39.2,30.59,North,0,1.0,4.0,86,0.00,,,0.00,meteohub,2013-12-24 23:17:00,
2013-12-24 15:22:00,43.2,39.2,30.59,North,0,2.0,4.0,86,0.00,,,0.00,meteohub,2013-12-24 23:22:00,
2013-12-24 15:27:00,43.2,39.2,30.59,North,0,0.0,4.0,86,0.00,,,0.00,meteohub,2013-12-24 23:27:00,
2013-12-24 15:32:00,43.0,39.0,30.59,North,0,1.0,4.0,86,0.00,,,0.00,meteohub,2013-12-24 23:32:00,
2013-12-24 15:37:00,43.0,39.4,30.59,North,0,1.0,3.0,87,0.00,,,0.00,meteohub,2013-12-24 23:37:00,
2013-12-24 15:42:00,43.0,39.4,30.59,North,0,2.0,3.0,87,0.00,,,0.00,meteohub,2013-12-24 23:42:00,
2013-12-24 15:47:00,43.0,39.4,30.59,North,0,1.0,3.0,87,0.00,,,0.00,meteohub,2013-12-24 23:47:00,
2013-12-24 15:52:00,43.0,39.4,30.59,North,0,0.0,3.0,87,0.00,,,0.00,meteohub,2013-12-24 23:52:00,
2013-12-24 15:57:00,43.0,39.4,30.59,North,0,0.0,3.0,87,0.00,,,0.00,meteohub,2013-12-24 23:57:00,
2013-12-24 16:03:00,42.6,39.0,30.59,North,0,0.0,2.0,87,0.00,,,0.00,meteohub,2013-12-25 00:03:00,
2013-12-24 16:08:00,42.6,39.4,30.59,North,0,0.0,1.0,88,0.00,,,0.00,meteohub,2013-12-25 00:08:00,
2013-12-24 16:13:00,42.4,39.2,30.58,North,0,1.0,0.0,88,0.00,,,0.00,meteohub,2013-12-25 00:13:00,
2013-12-24 16:18:00,42.3,39.0,30.58,NNW,336,2.0,2.0,88,0.00,,,0.00,meteohub,2013-12-25 00:18:00,
2013-12-24 16:23:00,41.9,38.7,30.58,NNW,336,1.0,2.0,88,0.00,,,0.00,meteohub,2013-12-25 00:23:00,
2013-12-24 16:28:00,41.5,38.5,30.58,NNW,336,0.0,2.0,89,0.00,,,0.00,meteohub,2013-12-25 00:28:00,
2013-12-24 16:33:00,41.4,38.3,30.58,NNW,336,0.0,2.0,89,0.00,,,0.00,meteohub,2013-12-25 00:33:00,
2013-12-24 16:38:00,41.4,38.3,30.58,NNW,336,0.0,2.0,89,0.00,,,0.00,meteohub,2013-12-25 00:38:00,
2013-12-24 16:43:00,41.2,38.5,30.58,NNW,336,0.0,2.0,90,0.00,,,0.00,meteohub,2013-12-25 00:43:00,
2013-12-24 16:48:00,41.0,38.3,30.58,NNW,336,0.0,1.0,90,0.00,,,0.00,meteohub,2013-12-25 00:48:00,
2013-12-24 16:53:00,40.8,38.1,30.58,NNW,336,0.0,0.0,90,0.00,,,0.00,meteohub,2013-12-25 00:53:00,
2013-12-24 16:58:00,40.6,37.9,30.58,NNW,336,0.0,1.0,90,0.00,,,0.00,meteohub,2013-12-25 00:58:00,
2013-12-24 17:03:00,40.6,38.3,30.58,NNW,336,0.0,1.0,91,0.00,,,0.00,meteohub,2013-12-25 01:03:00,
2013-12-24 17:08:00,40.5,38.1,30.58,NNW,336,0.0,1.0,91,0.00,,,0.00,meteohub,2013-12-25 01:08:00,
2013-12-24 17:13:00,40.3,37.9,30.58,NNW,336,0.0,0.0,91,0.00,,,0.00,meteohub,2013-12-25 01:13:00,
2013-12-24 17:19:00,40.1,37.8,30.58,NNW,336,0.0,0.0,91,0.00,,,0.00,meteohub,2013-12-25 01:19:00,
2013-12-24 17:24:00,39.9,37.6,30.58,NNW,336,0.0,0.0,91,0.00,,,0.00,meteohub,2013-12-25 01:24:00,
2013-12-24 17:29:00,39.7,37.4,30.58,NNW,336,1.0,1.0,91,0.00,,,0.00,meteohub,2013-12-25 01:29:00,
2013-12-24 17:34:00,39.7,37.4,30.58,NNW,336,2.0,2.0,91,0.00,,,0.00,meteohub,2013-12-25 01:34:00,
2013-12-24 17:39:00,39.7,37.6,30.58,NNW,336,0.0,2.0,92,0.00,,,0.00,meteohub,2013-12-25 01:39:00,
2013-12-24 17:44:00,39.7,37.6,30.58,NNW,336,1.0,2.0,92,0.00,,,0.00,meteohub,2013-12-25 01:44:00,
2013-12-24 17:49:00,39.6,37.4,30.58,NNW,336,0.0,2.0,92,0.00,,,0.00,meteohub,2013-12-25 01:49:00,
2013-12-24 17:54:00,39.6,37.4,30.58,NNW,336,0.0,2.0,92,0.00,,,0.00,meteohub,2013-12-25 01:54:00,
2013-12-24 17:59:00,39.4,37.2,30.57,NNW,336,0.0,2.0,92,0.00,,,0.00,meteohub,2013-12-25 01:59:00,
2013-12-24 18:04:00,39.4,37.2,30.57,NNW,336,0.0,1.0,92,0.00,,,0.00,meteohub,2013-12-25 02:04:00,
2013-12-24 18:09:00,39.2,37.0,30.57,NNW,336,0.0,1.0,92,0.00,,,0.00,meteohub,2013-12-25 02:09:00,
2013-12-24 18:14:00,39.0,36.9,30.57,NNW,336,0.0,1.0,92,0.00,,,0.00,meteohub,2013-12-25 02:14:00,
2013-12-24 18:19:00,38.8,36.7,30.58,NNW,336,0.0,2.0,92,0.00,,,0.00,meteohub,2013-12-25 02:19:00,
2013-12-24 18:25:00,38.8,36.7,30.58,NNE,17,2.0,4.0,92,0.00,,,0.00,meteohub,2013-12-25 02:25:00,
2013-12-24 18:30:00,38.8,37.0,30.58,NNE,17,0.0,5.0,93,0.00,,,0.00,meteohub,2013-12-25 02:30:00,
2013-12-24 18:35:00,38.8,36.7,30.58,NNE,17,0.0,5.0,92,0.00,,,0.00,meteohub,2013-12-25 02:35:00,
2013-12-24 18:40:00,38.8,37.0,30.58,NNE,17,0.0,5.0,93,0.00,,,0.00,meteohub,2013-12-25 02:40:00,
2013-12-24 18:45:00,38.7,36.9,30.58,NNE,16,0.0,3.0,93,0.00,,,0.00,meteohub,2013-12-25 02:45:00,
2013-12-24 18:50:00,38.7,36.9,30.58,North,5,1.0,2.0,93,0.00,,,0.00,meteohub,2013-12-25 02:50:00,
2013-12-24 18:55:00,38.7,36.9,30.58,NW,326,2.0,7.0,93,0.00,,,0.00,meteohub,2013-12-25 02:55:00,
2013-12-24 19:00:00,38.7,36.9,30.57,NW,325,2.0,7.0,93,0.00,,,0.00,meteohub,2013-12-25 03:00:00,
2013-12-24 19:05:00,38.7,36.9,30.57,NW,325,1.0,7.0,93,0.00,,,0.00,meteohub,2013-12-25 03:05:00,
2013-12-24 19:10:00,38.7,36.5,30.57,NW,325,1.0,6.0,92,0.00,,,0.00,meteohub,2013-12-25 03:10:00,
2013-12-24 19:15:00,38.7,36.9,30.57,NW,325,0.0,5.0,93,0.00,,,0.00,meteohub,2013-12-25 03:15:00,
2013-12-24 19:20:00,38.5,36.7,30.57,NW,325,0.0,4.0,93,0.00,,,0.00,meteohub,2013-12-25 03:20:00,
2013-12-24 19:25:00,38.7,36.9,30.57,NW,325,0.0,2.0,93,0.00,,,0.00,meteohub,2013-12-25 03:25:00,
2013-12-24 19:30:00,38.7,36.9,30.57,NW,325,0.0,5.0,93,0.00,,,0.00,meteohub,2013-12-25 03:30:00,
2013-12-24 19:35:00,38.7,36.9,30.57,NW,325,0.0,5.0,93,0.00,,,0.00,meteohub,2013-12-25 03:35:00,
2013-12-24 19:41:00,38.7,36.9,30.57,NW,325,0.0,5.0,93,0.00,,,0.00,meteohub,2013-12-25 03:41:00,
2013-12-24 19:46:00,38.7,36.5,30.57,NW,325,1.0,4.0,92,0.00,,,0.00,meteohub,2013-12-25 03:46:00,
2013-12-24 19:51:00,38.7,36.9,30.58,NW,325,0.0,4.0,93,0.00,,,0.00,meteohub,2013-12-25 03:51:00,
2013-12-24 19:56:00,38.7,36.5,30.58,NW,325,0.0,4.0,92,0.00,,,0.00,meteohub,2013-12-25 03:56:00,
2013-12-24 20:01:00,38.7,36.9,30.57,NW,325,1.0,2.0,93,0.00,,,0.00,meteohub,2013-12-25 04:01:00,
2013-12-24 20:06:00,38.7,36.5,30.58,NW,325,0.0,2.0,92,0.00,,,0.00,meteohub,2013-12-25 04:06:00,
2013-12-24 20:11:00,38.7,36.9,30.58,NW,325,1.0,4.0,93,0.00,,,0.00,meteohub,2013-12-25 04:11:00,
2013-12-24 20:16:00,38.7,36.9,30.58,NW,325,0.0,4.0,93,0.00,,,0.00,meteohub,2013-12-25 04:16:00,
2013-12-24 20:21:00,38.7,36.9,30.58,NW,325,4.0,4.0,93,0.00,,,0.00,meteohub,2013-12-25 04:21:00,
2013-12-24 20:26:00,38.8,37.0,30.58,NW,325,0.0,4.0,93,0.00,,,0.00,meteohub,2013-12-25 04:26:00,
2013-12-24 20:31:00,38.7,36.5,30.57,NW,325,0.0,4.0,92,0.00,,,0.00,meteohub,2013-12-25 04:31:00,
2013-12-24 20:36:00,38.5,36.3,30.57,NW,326,0.0,4.0,92,0.00,,,0.00,meteohub,2013-12-25 04:36:00,
2013-12-24 20:41:00,38.5,36.7,30.58,NNW,331,5.0,7.0,93,0.00,,,0.00,meteohub,2013-12-25 04:41:00,
2013-12-24 20:46:00,38.7,36.9,30.57,NNW,327,4.0,7.0,93,0.00,,,0.00,meteohub,2013-12-25 04:46:00,
2013-12-24 20:51:00,38.8,37.0,30.57,NNW,327,5.0,8.0,93,0.00,,,0.00,meteohub,2013-12-25 04:51:00,
2013-12-24 20:57:00,39.0,37.2,30.57,NW,326,7.0,8.0,93,0.00,,,0.00,meteohub,2013-12-25 04:57:00,
2013-12-24 21:01:00,39.0,36.9,30.57,NNW,330,7.0,7.0,92,0.00,,,0.00,meteohub,2013-12-25 05:01:00,
2013-12-24 21:02:00,39.0,36.9,30.57,NNW,329,7.0,7.0,92,0.00,,,0.00,meteohub,2013-12-25 05:02:00,
2013-12-24 21:03:00,39.0,36.9,30.57,NW,319,5.0,7.0,92,0.00,,,0.00,meteohub,2013-12-25 05:03:00,
2013-12-24 21:08:00,38.7,36.5,30.57,NNW,329,4.0,9.0,92,0.00,,,0.00,meteohub,2013-12-25 05:08:00,
2013-12-24 21:13:00,38.7,36.5,30.57,NW,326,6.0,9.0,92,0.00,,,0.00,meteohub,2013-12-25 05:13:00,
2013-12-24 21:18:00,38.8,36.7,30.56,NW,326,5.0,9.0,92,0.00,,,0.00,meteohub,2013-12-25 05:18:00,
2013-12-24 21:23:00,39.0,36.9,30.57,NW,312,7.0,9.0,92,0.00,,,0.00,meteohub,2013-12-25 05:23:00,
2013-12-24 21:28:00,39.0,36.7,30.57,NW,317,6.0,8.0,91,0.00,,,0.00,meteohub,2013-12-25 05:28:00,
2013-12-24 21:34:00,39.2,37.0,30.56,NW,319,6.0,8.0,92,0.00,,,0.00,meteohub,2013-12-25 05:34:00,
2013-12-24 21:39:00,39.4,37.0,30.57,WNW,300,6.0,9.0,91,0.00,,,0.00,meteohub,2013-12-25 05:39:00,
2013-12-24 21:44:00,39.2,37.0,30.56,NW,325,6.0,9.0,92,0.00,,,0.00,meteohub,2013-12-25 05:44:00,
2013-12-24 21:49:00,39.4,37.0,30.56,NW,322,7.0,9.0,91,0.00,,,0.00,meteohub,2013-12-25 05:49:00,
2013-12-24 21:54:00,39.0,36.7,30.56,NNW,335,7.0,9.0,91,0.00,,,0.00,meteohub,2013-12-25 05:54:00,
2013-12-24 21:59:00,39.0,36.7,30.56,WNW,301,8.0,9.0,91,0.00,,,0.00,meteohub,2013-12-25 05:59:00,
2013-12-24 22:04:00,39.0,36.7,30.56,NNW,328,6.0,9.0,91,0.00,,,0.00,meteohub,2013-12-25 06:04:00,
2013-12-24 22:09:00,39.0,36.7,30.56,NNW,343,1.0,9.0,91,0.00,,,0.00,meteohub,2013-12-25 06:09:00,
2013-12-24 22:14:00,38.8,36.5,30.56,NNW,342,2.0,9.0,91,0.00,,,0.00,meteohub,2013-12-25 06:14:00,
2013-12-24 22:19:00,38.8,36.5,30.56,NNW,342,0.0,9.0,91,0.00,,,0.00,meteohub,2013-12-25 06:19:00,
2013-12-24 22:24:00,38.7,36.3,30.56,NNW,342,0.0,8.0,91,0.00,,,0.00,meteohub,2013-12-25 06:24:00,
2013-12-24 22:29:00,38.5,36.1,30.56,NNW,342,0.0,4.0,91,0.00,,,0.00,meteohub,2013-12-25 06:29:00,
2013-12-24 22:35:00,38.1,35.8,30.56,NNW,342,0.0,2.0,91,0.00,,,0.00,meteohub,2013-12-25 06:35:00,
2013-12-24 22:40:00,38.1,35.8,30.56,NNW,342,1.0,2.0,91,0.00,,,0.00,meteohub,2013-12-25 06:40:00,
2013-12-24 22:45:00,37.9,35.6,30.56,NNW,342,0.0,1.0,91,0.00,,,0.00,meteohub,2013-12-25 06:45:00,
2013-12-24 22:50:00,37.8,35.4,30.56,NNW,342,0.0,2.0,91,0.00,,,0.00,meteohub,2013-12-25 06:50:00,
2013-12-24 22:55:00,37.8,35.6,30.57,NNW,342,1.0,2.0,92,0.00,,,0.00,meteohub,2013-12-25 06:55:00,
2013-12-24 23:00:00,37.8,35.6,30.56,NNW,342,0.0,2.0,92,0.00,,,0.00,meteohub,2013-12-25 07:00:00,
2013-12-24 23:05:00,37.8,35.6,30.56,NNW,342,0.0,2.0,92,0.00,,,0.00,meteohub,2013-12-25 07:05:00,
2013-12-24 23:10:00,37.6,35.4,30.56,NNW,342,0.0,2.0,92,0.00,,,0.00,meteohub,2013-12-25 07:10:00,
2013-12-24 23:15:00,37.4,35.2,30.56,NNW,342,0.0,2.0,92,0.00,,,0.00,meteohub,2013-12-25 07:15:00,
2013-12-24 23:20:00,37.2,35.1,30.56,NNW,342,1.0,2.0,92,0.00,,,0.00,meteohub,2013-12-25 07:20:00,
2013-12-24 23:22:00,37.0,34.9,30.57,NNW,342,0.0,2.0,92,0.00,,,0.00,meteohub,2013-12-25 07:22:00,
2013-12-24 23:27:00,37.0,34.9,30.57,North,355,2.0,4.0,92,0.00,,,0.00,meteohub,2013-12-25 07:27:00,
2013-12-24 23:32:00,37.0,34.9,30.56,North,355,0.0,4.0,92,0.00,,,0.00,meteohub,2013-12-25 07:32:00,
2013-12-24 23:38:00,36.9,34.7,30.56,NW,325,5.0,5.0,92,0.00,,,0.00,meteohub,2013-12-25 07:38:00,
2013-12-24 23:43:00,36.9,34.7,30.56,NW,309,4.0,6.0,92,0.00,,,0.00,meteohub,2013-12-25 07:43:00,
2013-12-24 23:48:00,36.9,34.7,30.56,NNW,339,1.0,6.0,92,0.00,,,0.00,meteohub,2013-12-25 07:48:00,
2013-12-24 23:53:00,36.5,34.3,30.56,NW,325,0.0,6.0,92,0.00,,,0.00,meteohub,2013-12-25 07:53:00,
2013-12-24 23:58:00,36.1,34.0,30.55,NW,325,0.0,6.0,92,0.00,,,0.00,meteohub,2013-12-25 07:58:00,